Time;durP1;ratioP1;P1;durP2;ratioP2;P2;SDS_P1;SDS_P2;PMS_P1;PMS_P2;Temp;Humidity;BMP_temperature;BMP_pressure;BME280_temperature;BME280_humidity;BME280_pressure;Samples;Min_cycle;Max_cycle;Signal;HPM_P1;HPM_P2
2021/12/09 00:00:12;;;;;;;8.27;4.28;;;;;;;-2.71;100.00;100595.78;4962161;28;20089;-63
2021/12/09 00:03:05;;;;;;;7.93;3.97;;;;;;;-2.95;100.00;100575.63;4969596;28;20136;-63
2021/12/09 00:05:50;;;;;;;8.95;3.97;;;;;;;-3.02;100.00;100576.16;4967496;28;20121;-64
2021/12/09 00:08:38;;;;;;;8.23;4.32;;;;;;;-2.90;100.00;100590.56;4966538;28;20554;-62
2021/12/09 00:11:23;;;;;;;7.78;4.07;;;;;;;-2.94;100.00;100564.41;4952799;28;20050;-70
2021/12/09 00:14:30;;;;;;;10.63;4.80;;;;;;;-2.75;100.00;100588.69;4968653;28;20042;-62
2021/12/09 00:17:15;;;;;;;7.18;3.67;;;;;;;-2.70;100.00;100587.19;4960555;28;20507;-64
2021/12/09 00:20:00;;;;;;;8.45;4.03;;;;;;;-2.72;100.00;100588.81;4960780;28;20049;-64
2021/12/09 00:22:49;;;;;;;7.20;3.70;;;;;;;-2.80;100.00;100590.19;4960888;28;20235;-63
2021/12/09 00:25:35;;;;;;;7.93;3.58;;;;;;;-2.70;100.00;100597.56;4987333;28;20048;-64
2021/12/09 00:28:19;;;;;;;10.07;4.28;;;;;;;-2.68;100.00;100595.94;4978360;28;20599;-63
2021/12/09 00:31:04;;;;;;;9.35;3.78;;;;;;;-2.73;100.00;100591.34;4964904;28;20041;-63
2021/12/09 00:33:50;;;;;;;7.30;3.65;;;;;;;-2.83;100.00;100566.69;4973602;28;20191;-69
2021/12/09 00:36:42;;;;;;;11.52;3.50;;;;;;;-2.67;100.00;100591.63;4967159;28;20108;-68
2021/12/09 00:39:26;;;;;;;8.77;3.78;;;;;;;-2.64;100.00;100589.16;4952037;28;20514;-64
2021/12/09 00:42:11;;;;;;;;;;;;;;;-2.57;100.00;100586.03;4965305;28;20041;-61
2021/12/09 00:44:56;;;;;;;8.05;3.72;;;;;;;-2.62;100.00;100598.78;4964195;28;20705;-63
2021/12/09 00:47:40;;;;;;;9.15;4.10;;;;;;;-2.69;100.00;100580.28;4967344;28;20088;-60
2021/12/09 00:50:24;;;;;;;9.98;3.80;;;;;;;-2.71;100.00;100595.78;4980260;28;20050;-62
2021/12/09 00:53:09;;;;;;;6.90;3.40;;;;;;;-2.70;100.00;100597.56;4976177;28;20049;-65
2021/12/09 00:55:55;;;;;;;9.13;3.95;;;;;;;-2.68;100.00;100601.13;4974577;28;20080;-58
2021/12/09 00:58:42;;;;;;;8.77;4.32;;;;;;;-2.64;100.00;100594.34;4959395;28;20141;-66
2021/12/09 01:01:27;;;;;;;7.25;3.78;;;;;;;-2.76;100.00;100584.31;4977064;28;20061;-61
2021/12/09 01:04:12;;;;;;;7.68;3.53;;;;;;;-2.77;100.00;100599.81;4960535;28;20182;-61
2021/12/09 01:06:56;;;;;;;;;;;;;;;-2.75;100.00;100593.88;4973224;28;20077;-68
2021/12/09 01:09:41;;;;;;;8.00;3.55;;;;;;;-2.75;100.00;100596.47;4973632;28;19917;-61
2021/12/09 01:12:26;;;;;;;;;;;;;;;-2.62;100.00;100603.06;4957000;28;20093;-63
2021/12/09 01:15:13;;;;;;;6.72;3.20;;;;;;;-2.66;100.00;100602.06;4971552;28;19934;-62
2021/12/09 01:17:59;;;;;;;8.70;4.32;;;;;;;-2.75;100.00;100585.19;4954255;28;20052;-62
2021/12/09 01:20:44;;;;;;;7.10;3.28;;;;;;;-2.79;100.00;100596.25;4973756;28;20144;-61
2021/12/09 01:23:28;;;;;;;7.35;3.63;;;;;;;-2.80;100.00;100597.06;4943479;28;20120;-58
2021/12/09 01:26:14;;;;;;;5.95;3.78;;;;;;;-2.91;100.00;100599.19;4947755;28;20050;-65
2021/12/09 01:29:04;;;;;;;7.85;3.25;;;;;;;-2.86;100.00;100597.69;4962045;28;20141;-61
2021/12/09 01:31:58;;;;;;;7.50;3.63;;;;;;;-2.79;100.00;100601.44;4975373;28;20398;-63
2021/12/09 01:34:43;;;;;;;7.20;3.70;;;;;;;-2.82;100.00;100607.38;4983547;28;20176;-61
2021/12/09 01:37:28;;;;;;;7.10;3.80;;;;;;;-2.78;100.00;100604.09;4983132;28;20057;-62
2021/12/09 01:40:14;;;;;;;;;;;;;;;-2.81;100.00;100600.50;4939530;28;20088;-63
2021/12/09 01:42:58;;;;;;;9.02;3.83;;;;;;;-3.00;100.00;100603.97;4977055;28;20346;-62
2021/12/09 01:45:43;;;;;;;;;;;;;;;-2.89;100.00;100594.94;4970686;28;20060;-63
2021/12/09 01:48:27;;;;;;;7.85;3.60;;;;;;;-2.82;100.00;100599.59;4979365;28;20004;-63
2021/12/09 01:51:12;;;;;;;8.35;3.45;;;;;;;-2.84;100.00;100606.44;4980884;28;20125;-63
2021/12/09 01:53:57;;;;;;;7.00;3.47;;;;;;;-2.94;100.00;100598.13;4966168;28;20049;-58
2021/12/09 01:56:42;;;;;;;8.15;3.70;;;;;;;-2.88;100.00;100601.03;4972308;28;20050;-61
2021/12/09 01:59:27;;;;;;;7.15;3.67;;;;;;;-2.72;100.00;100600.91;4971535;28;20105;-67
2021/12/09 02:02:11;;;;;;;6.38;3.30;;;;;;;-2.68;100.00;100606.31;4980254;28;20143;-62
2021/12/09 02:04:56;;;;;;;7.50;4.55;;;;;;;-2.61;100.00;100600.56;4961574;28;20084;-63
2021/12/09 02:07:40;;;;;;;7.65;3.53;;;;;;;-2.67;100.00;100612.38;4974682;28;20070;-60
2021/12/09 02:10:27;;;;;;;7.20;3.83;;;;;;;-2.56;100.00;100622.44;4980360;28;20058;-60
2021/12/09 02:13:13;;;;;;;7.30;4.15;;;;;;;-2.74;100.00;100624.19;4972160;28;20529;-62
2021/12/09 02:15:58;;;;;;;6.90;3.67;;;;;;;-2.80;100.00;100621.31;4967376;28;20053;-62
2021/12/09 02:18:43;;;;;;;6.95;3.10;;;;;;;-2.72;100.00;100619.97;4960271;28;20145;-66
2021/12/09 02:21:33;;;;;;;8.00;3.40;;;;;;;-2.81;100.00;100618.66;4977587;28;20069;-61
2021/12/09 02:24:18;;;;;;;6.90;3.35;;;;;;;-2.96;100.00;100630.91;4960392;28;20050;-62
2021/12/09 02:27:03;;;;;;;12.75;3.20;;;;;;;-3.02;100.00;100630.59;4966759;28;20388;-61
2021/12/09 02:29:50;;;;;;;8.02;4.00;;;;;;;-3.00;100.00;100637.69;4977986;28;20134;-60
2021/12/09 02:32:34;;;;;;;8.30;3.55;;;;;;;-2.87;100.00;100633.94;4972358;28;20097;-66
2021/12/09 02:35:19;;;;;;;;;;;;;;;-2.87;100.00;100647.81;4969837;28;20054;-62
2021/12/09 02:38:07;;;;;;;10.05;4.18;;;;;;;-3.02;100.00;100646.16;4987667;28;19992;-63
2021/12/09 02:40:55;;;;;;;9.45;4.97;;;;;;;-3.08;100.00;100644.22;4980605;28;20395;-64
2021/12/09 02:43:42;;;;;;;8.77;4.40;;;;;;;-3.22;100.00;100645.25;4950051;28;20448;-63
2021/12/09 02:46:28;;;;;;;7.10;3.80;;;;;;;-3.06;100.00;100642.56;4983944;28;20177;-67
2021/12/09 02:49:18;;;;;;;8.18;3.83;;;;;;;-2.94;100.00;100648.31;4952478;28;20093;-63
2021/12/09 02:52:06;;;;;;;9.15;4.15;;;;;;;-2.88;100.00;100650.31;4963199;28;20061;-56
2021/12/09 02:54:51;;;;;;;8.10;3.75;;;;;;;-2.98;100.00;100651.59;4979682;28;20073;-60
2021/12/09 02:57:37;;;;;;;9.10;4.30;;;;;;;-2.73;100.00;100662.28;4968251;28;20133;-64
2021/12/09 03:00:22;;;;;;;7.45;3.30;;;;;;;-2.64;100.00;100660.13;4970389;28;20077;-64
2021/12/09 03:03:08;;;;;;;6.15;3.33;;;;;;;-2.83;100.00;100660.09;4968579;28;20064;-69
2021/12/09 03:05:58;;;;;;;8.60;3.70;;;;;;;-2.74;100.00;100660.50;4977601;28;20264;-60
2021/12/09 03:08:44;;;;;;;5.82;3.33;;;;;;;-2.82;100.00;100648.00;4980972;28;20089;-58
2021/12/09 03:11:30;;;;;;;7.30;3.50;;;;;;;-2.65;100.00;100668.72;4966583;28;20124;-60
2021/12/09 03:14:15;;;;;;;7.00;3.22;;;;;;;-2.45;100.00;100675.72;4961722;28;20104;-68
2021/12/09 03:17:00;;;;;;;9.85;4.20;;;;;;;-2.46;100.00;100684.31;4969544;28;20045;-60
2021/12/09 03:19:47;;;;;;;8.30;3.88;;;;;;;-2.61;100.00;100675.81;4975776;28;20108;-61
2021/12/09 03:22:31;;;;;;;9.70;4.10;;;;;;;-2.62;100.00;100674.06;4970216;28;20093;-62
2021/12/09 03:25:19;;;;;;;7.80;4.10;;;;;;;-2.71;100.00;100671.03;4962455;28;20142;-64
2021/12/09 03:28:04;;;;;;;9.35;3.97;;;;;;;-2.72;100.00;100678.75;4981027;28;20149;-58
2021/12/09 03:30:48;;;;;;;7.18;3.60;;;;;;;-2.66;100.00;100684.22;4966626;28;20141;-59
2021/12/09 03:33:33;;;;;;;9.30;4.45;;;;;;;-2.60;100.00;100692.31;4985419;28;20084;-72
2021/12/09 03:36:17;;;;;;;10.23;4.47;;;;;;;-2.65;100.00;100691.22;4977697;28;20045;-60
2021/12/09 03:39:06;;;;;;;6.93;3.67;;;;;;;-2.61;100.00;100699.19;4942243;28;20093;-59
2021/12/09 03:41:54;;;;;;;8.27;3.95;;;;;;;-2.54;100.00;100709.03;4976411;28;20041;-60
2021/12/09 03:44:40;;;;;;;10.52;4.72;;;;;;;-2.60;100.00;100703.59;4955937;28;20041;-63
2021/12/09 03:47:28;;;;;;;9.75;4.30;;;;;;;-2.56;100.00;100702.91;4983449;28;20049;-61
2021/12/09 03:50:17;;;;;;;10.80;4.00;;;;;;;-2.75;100.00;100700.25;4962931;28;20122;-56
2021/12/09 03:53:02;;;;;;;10.77;4.10;;;;;;;-2.67;100.00;100709.31;4963418;28;20065;-61
2021/12/09 03:55:47;;;;;;;9.77;4.15;;;;;;;-2.71;100.00;100704.78;4948244;28;20123;-58
2021/12/09 03:58:32;;;;;;;11.32;4.18;;;;;;;-2.67;100.00;100706.69;4979382;28;20180;-55
2021/12/09 04:01:17;;;;;;;12.73;4.50;;;;;;;-2.75;100.00;100715.84;4962540;28;20108;-68
2021/12/09 04:04:07;;;;;;;9.75;4.40;;;;;;;-2.65;100.00;100719.75;4957516;28;20041;-58
2021/12/09 04:07:01;;;;;;;9.40;4.50;;;;;;;-2.72;100.00;100704.72;4953350;28;20513;-62
2021/12/09 04:09:46;;;;;;;10.15;4.03;;;;;;;-2.61;100.00;100717.34;4968552;28;20105;-59
2021/12/09 04:12:30;;;;;;;11.15;4.88;;;;;;;-2.77;100.00;100714.84;4982166;28;20367;-57
2021/12/09 04:15:15;;;;;;;11.13;4.95;;;;;;;-2.75;100.00;100728.81;4983264;28;20045;-64
2021/12/09 04:18:03;;;;;;;9.93;4.38;;;;;;;-2.97;100.00;100725.13;4983259;28;20519;-60
2021/12/09 04:20:49;;;;;;;9.48;4.25;;;;;;;-2.94;100.00;100723.56;4981884;28;20049;-58
2021/12/09 04:23:35;;;;;;;11.18;4.93;;;;;;;-2.98;100.00;100728.50;4973021;28;20054;-62
2021/12/09 04:26:19;;;;;;;9.95;4.13;;;;;;;-3.09;100.00;100715.03;4959159;28;20820;-64
2021/12/09 04:29:05;;;;;;;;;;;;;;;-2.98;100.00;100724.22;4950318;28;20101;-55
2021/12/09 04:31:52;;;;;;;9.35;4.22;;;;;;;-3.01;100.00;100711.09;4960121;28;20277;-68
2021/12/09 04:34:36;;;;;;;8.85;4.03;;;;;;;-3.09;100.00;100703.78;4963046;28;20123;-61
2021/12/09 04:37:23;;;;;;;11.77;4.57;;;;;;;-2.97;100.00;100709.56;4980534;28;20582;-64
2021/12/09 04:40:11;;;;;;;10.23;4.45;;;;;;;-2.83;100.00;100727.56;4949211;28;20085;-68
2021/12/09 04:42:55;;;;;;;9.90;4.25;;;;;;;-2.81;100.00;100715.53;4987246;28;20513;-62
2021/12/09 04:45:40;;;;;;;12.38;5.15;;;;;;;-2.90;100.00;100707.31;4962581;28;20431;-69
2021/12/09 04:48:26;;;;;;;10.75;4.13;;;;;;;-2.78;100.00;100697.53;4954780;28;20453;-63
2021/12/09 04:51:18;;;;;;;10.63;4.88;;;;;;;-2.71;100.00;100709.97;4964244;28;20050;-66
2021/12/09 04:54:05;;;;;;;11.07;4.55;;;;;;;-2.74;100.00;100716.69;4954851;28;20042;-65
2021/12/09 04:56:53;;;;;;;10.65;5.13;;;;;;;-2.87;100.00;100719.53;4976428;28;20508;-64
2021/12/09 04:59:38;;;;;;;9.57;4.55;;;;;;;-2.94;100.00;100722.66;4944326;28;20049;-64
2021/12/09 05:05:26;;;;;;;10.18;4.50;;;;;;;-3.01;100.00;100725.78;4977422;28;20053;-63
2021/12/09 05:08:15;;;;;;;10.85;4.38;;;;;;;-3.18;100.00;100724.06;4963018;28;20062;-62
2021/12/09 05:13:50;;;;;;;11.27;5.18;;;;;;;-3.21;100.00;100727.38;4962757;28;20082;-63
2021/12/09 05:16:34;;;;;;;12.38;4.30;;;;;;;-3.38;100.00;100724.78;4963487;28;20838;-61
2021/12/09 05:19:20;;;;;;;12.95;4.90;;;;;;;-3.38;100.00;100723.09;4963355;28;20042;-64
2021/12/09 05:22:05;;;;;;;12.25;5.25;;;;;;;-3.32;100.00;100730.28;4983041;28;20442;-63
2021/12/09 05:24:52;;;;;;;10.70;4.75;;;;;;;-3.25;100.00;100743.63;4972609;28;20123;-69
2021/12/09 05:27:38;;;;;;;7.90;4.20;;;;;;;-3.23;100.00;100744.59;4956928;28;20097;-57
2021/12/09 05:30:26;;;;;;;11.27;4.50;;;;;;;-3.24;100.00;100749.69;4939919;28;20042;-59
2021/12/09 05:33:11;;;;;;;11.32;5.00;;;;;;;-3.26;100.00;100747.03;4981067;28;20052;-58
2021/12/09 05:35:56;;;;;;;9.23;4.28;;;;;;;-3.20;100.00;100743.84;4988363;28;20040;-57
2021/12/09 05:38:42;;;;;;;12.23;5.13;;;;;;;-3.38;100.00;100751.59;4953986;28;20045;-65
2021/12/09 05:41:27;;;;;;;11.73;5.43;;;;;;;-3.41;100.00;100746.25;4957401;28;20045;-56
2021/12/09 05:44:14;;;;;;;8.18;4.28;;;;;;;-3.25;100.00;100751.38;4985740;28;20065;-56
2021/12/09 05:46:59;;;;;;;13.73;5.25;;;;;;;-3.11;100.00;100758.16;4973128;28;20521;-59
2021/12/09 05:49:47;;;;;;;10.93;4.57;;;;;;;-3.02;100.00;100757.72;4972647;28;20112;-62
2021/12/09 05:52:38;;;;;;;13.85;5.22;;;;;;;-3.05;100.00;100760.19;4987074;28;20096;-66
2021/12/09 05:55:22;;;;;;;12.70;4.93;;;;;;;-3.10;100.00;100761.63;4973866;28;20140;-56
2021/12/09 05:58:07;;;;;;;13.07;4.93;;;;;;;-3.20;100.00;100747.34;4981970;28;20046;-56
2021/12/09 06:00:53;;;;;;;12.23;4.72;;;;;;;-3.04;100.00;100765.44;4960115;28;20130;-58
2021/12/09 06:03:39;;;;;;;11.02;4.78;;;;;;;-3.08;100.00;100763.50;4987050;28;20926;-59
2021/12/09 06:06:24;;;;;;;11.52;4.65;;;;;;;-2.98;100.00;100765.72;4959769;28;20068;-60
2021/12/09 06:09:10;;;;;;;;;;;;;;;-2.97;100.00;100753.66;4986820;28;20041;-68
2021/12/09 06:11:55;;;;;;;14.18;4.43;;;;;;;-3.26;100.00;100746.13;4972068;28;19917;-66
2021/12/09 06:14:40;;;;;;;13.25;4.85;;;;;;;-3.32;100.00;100754.47;4973639;28;20473;-65
2021/12/09 06:17:25;;;;;;;11.57;4.55;;;;;;;-3.22;100.00;100758.44;4965694;28;20073;-65
2021/12/09 06:20:10;;;;;;;11.13;4.63;;;;;;;-3.24;100.00;100766.13;4972139;28;20554;-73
2021/12/09 06:22:56;;;;;;;12.32;5.25;;;;;;;-3.26;100.00;100765.19;4953245;28;20050;-63
2021/12/09 06:25:41;;;;;;;10.52;5.10;;;;;;;-3.25;100.00;100766.06;4961148;28;20522;-63
2021/12/09 06:28:26;;;;;;;11.88;4.53;;;;;;;-3.23;100.00;100769.63;4985323;28;20065;-57
2021/12/09 06:31:11;;;;;;;9.73;4.80;;;;;;;-3.37;100.00;100757.69;4970408;28;20053;-60
2021/12/09 06:33:55;;;;;;;11.07;4.72;;;;;;;-3.26;100.00;100772.06;4981414;28;20049;-61
2021/12/09 06:36:41;;;;;;;14.32;5.28;;;;;;;-3.21;100.00;100771.47;4952151;28;20057;-65
2021/12/09 06:39:26;;;;;;;10.20;4.28;;;;;;;-3.32;100.00;100772.63;4976389;28;20042;-61
2021/12/09 06:42:13;;;;;;;13.90;4.90;;;;;;;-3.48;100.00;100780.44;4970475;28;20050;-58
2021/12/09 06:44:58;;;;;;;12.77;5.72;;;;;;;-3.29;100.00;100788.34;4961025;28;20123;-67
2021/12/09 06:47:45;;;;;;;12.73;5.05;;;;;;;-3.16;100.00;100792.47;4987237;28;20509;-61
2021/12/09 06:50:29;;;;;;;16.20;5.97;;;;;;;-3.16;100.00;100801.16;4956344;28;20089;-60
2021/12/09 06:53:15;;;;;;;;;;;;;;;-3.06;100.00;100800.78;4984501;28;20057;-56
2021/12/09 06:56:01;;;;;;;10.63;4.80;;;;;;;-3.03;100.00;100808.72;4970667;28;19948;-60
2021/12/09 06:58:47;;;;;;;11.00;5.20;;;;;;;-3.17;100.00;100806.25;4967954;28;20446;-58
2021/12/09 07:01:31;;;;;;;10.52;4.88;;;;;;;-3.20;100.00;100825.16;4969736;28;20104;-59
2021/12/09 07:04:16;;;;;;;11.60;5.45;;;;;;;-2.96;100.00;100817.69;4970990;28;20382;-66
2021/12/09 07:07:03;;;;;;;14.07;5.38;;;;;;;-2.81;100.00;100834.03;4975056;28;20088;-64
2021/12/09 07:09:48;;;;;;;14.45;5.97;;;;;;;-2.57;100.00;100832.63;4968494;28;20052;-62
2021/12/09 07:12:35;;;;;;;11.48;5.07;;;;;;;-2.40;100.00;100837.81;4972160;28;20049;-61
2021/12/09 07:15:21;;;;;;;12.32;5.53;;;;;;;-2.31;100.00;100847.72;4986839;28;20134;-56
2021/12/09 07:18:06;;;;;;;13.93;5.63;;;;;;;-2.26;100.00;100849.72;4986655;28;20101;-61
2021/12/09 07:20:55;;;;;;;15.85;5.97;;;;;;;-2.06;100.00;100841.16;4972383;28;20109;-62
2021/12/09 07:23:40;;;;;;;13.27;5.30;;;;;;;-1.98;100.00;100845.00;4984737;28;20038;-66
2021/12/09 07:26:25;;;;;;;10.82;5.50;;;;;;;-1.78;100.00;100838.16;4956052;28;20133;-60
2021/12/09 07:29:09;;;;;;;15.13;5.45;;;;;;;-1.73;100.00;100839.25;4973013;28;20122;-63
2021/12/09 07:31:54;;;;;;;11.90;4.47;;;;;;;-1.66;100.00;100844.78;4972222;28;20108;-56
2021/12/09 07:34:40;;;;;;;9.95;4.60;;;;;;;-1.69;100.00;100839.47;4960711;28;20038;-62
2021/12/09 07:37:24;;;;;;;13.18;5.53;;;;;;;-1.75;100.00;100830.47;4989821;28;20523;-67
2021/12/09 07:40:14;;;;;;;13.90;5.65;;;;;;;-1.76;100.00;100821.78;4991509;28;20038;-58
2021/12/09 07:42:59;;;;;;;11.98;5.55;;;;;;;-0.69;100.00;100827.38;4969441;28;20042;-64
2021/12/09 07:45:45;;;;;;;12.00;5.10;;;;;;;0.77;100.00;100835.69;4972750;28;20057;-62
2021/12/09 07:48:30;;;;;;;10.25;4.95;;;;;;;1.90;100.00;100842.16;4974597;28;20088;-60
2021/12/09 07:51:16;;;;;;;9.20;4.32;;;;;;;3.10;100.00;100846.59;4977833;28;20117;-62
2021/12/09 07:54:07;;;;;;;10.45;4.90;;;;;;;4.10;100.00;100843.00;4945928;28;20113;-63
2021/12/09 07:56:52;;;;;;;9.48;4.70;;;;;;;4.81;100.00;100849.78;4967944;28;20153;-61
2021/12/09 07:59:37;;;;;;;10.13;4.97;;;;;;;5.39;98.81;100854.38;4987976;28;20045;-64
2021/12/09 08:02:22;;;;;;;8.82;4.70;;;;;;;6.24;92.98;100852.31;4989409;28;20095;-63
2021/12/09 08:05:08;;;;;;;11.07;5.22;;;;;;;6.45;86.45;100852.63;4975673;28;20037;-60
2021/12/09 08:07:53;;;;;;;9.27;5.30;;;;;;;7.00;79.82;100852.47;4988387;28;20072;-57
2021/12/09 08:10:38;;;;;;;9.60;5.20;;;;;;;7.63;75.23;100854.00;4955339;28;20042;-69
2021/12/09 08:13:23;;;;;;;;;;;;;;;8.50;71.29;100856.41;4987832;28;20540;-60
2021/12/09 08:16:08;;;;;;;7.53;4.60;;;;;;;8.28;69.28;100854.53;4989718;28;19921;-62
2021/12/09 08:18:53;;;;;;;8.38;4.85;;;;;;;8.50;65.43;100853.78;4942559;28;20467;-63
2021/12/09 08:21:41;;;;;;;8.15;4.93;;;;;;;8.67;64.99;100860.06;4968196;28;20045;-62
2021/12/09 08:24:26;;;;;;;8.48;5.38;;;;;;;9.25;62.08;100859.38;4970151;28;20133;-61
2021/12/09 08:27:14;;;;;;;8.25;4.97;;;;;;;9.68;58.57;100861.22;4958914;28;20206;-62
2021/12/09 08:30:05;;;;;;;8.77;5.05;;;;;;;9.93;59.32;100854.19;4951395;28;20089;-61
2021/12/09 08:32:49;;;;;;;8.38;5.10;;;;;;;10.55;53.75;100855.88;4987100;28;20053;-64
2021/12/09 08:35:37;;;;;;;10.88;6.00;;;;;;;10.91;52.40;100858.41;4969258;28;20053;-62
2021/12/09 08:38:23;;;;;;;8.32;5.40;;;;;;;11.29;47.71;100856.47;4986025;28;20041;-60
2021/12/09 08:41:08;;;;;;;9.55;5.90;;;;;;;10.90;47.34;100859.31;4972453;28;20111;-59
2021/12/09 08:43:52;;;;;;;;;;;;;;;11.71;46.75;100861.53;4981966;28;20096;-58
2021/12/09 08:46:39;;;;;;;8.07;5.20;;;;;;;11.88;45.58;100866.72;4972409;28;20408;-61
2021/12/09 08:49:24;;;;;;;8.75;5.25;;;;;;;11.93;41.83;100859.59;4971388;28;20049;-62
2021/12/09 08:52:08;;;;;;;8.60;4.88;;;;;;;11.99;43.28;100867.53;4982988;28;20105;-58
2021/12/09 08:54:53;;;;;;;7.93;4.38;;;;;;;11.78;42.63;100857.03;4987350;28;20048;-62
2021/12/09 08:57:37;;;;;;;8.07;5.05;;;;;;;12.09;42.31;100846.16;4984165;28;20394;-66
2021/12/09 09:00:23;;;;;;;;;;;;;;;12.45;42.68;100850.22;4960455;28;20087;-59
2021/12/09 09:03:08;;;;;;;8.32;5.22;;;;;;;12.41;41.72;100846.72;4971974;28;19928;-60
2021/12/09 09:05:54;;;;;;;9.00;5.18;;;;;;;12.49;40.95;100860.84;4986596;28;20088;-59
2021/12/09 09:08:38;;;;;;;;;;;;;;;13.31;40.19;100863.41;4971645;28;20038;-64
2021/12/09 09:11:23;;;;;;;9.05;5.30;;;;;;;13.02;38.66;100852.28;4989665;28;20222;-66
2021/12/09 09:14:09;;;;;;;10.52;5.10;;;;;;;12.36;39.27;100843.25;4941964;28;20058;-64
2021/12/09 09:16:54;;;;;;;10.57;5.70;;;;;;;12.00;40.84;100861.31;4958685;28;20072;-66
2021/12/09 09:19:44;;;;;;;8.90;5.30;;;;;;;12.09;40.91;100863.88;4987901;28;20157;-61
2021/12/09 09:22:29;;;;;;;8.02;4.93;;;;;;;11.41;38.95;100860.81;4948017;29;20135;-62
2021/12/09 09:25:24;;;;;;;8.55;5.07;;;;;;;10.68;39.96;100867.34;4947454;29;20110;-63
2021/12/09 09:28:10;;;;;;;9.38;4.75;;;;;;;9.96;42.02;100855.06;4948301;29;20673;-63
2021/12/09 09:30:56;;;;;;;8.60;5.53;;;;;;;8.95;44.08;100867.22;4944816;29;20105;-64
2021/12/09 09:33:42;;;;;;;8.43;5.30;;;;;;;8.36;50.79;100859.00;4946848;29;20090;-68
2021/12/09 09:36:27;;;;;;;7.90;5.07;;;;;;;9.00;51.20;100862.84;4946983;28;20046;-61
2021/12/09 09:39:18;;;;;;;8.93;5.18;;;;;;;9.65;47.85;100863.00;4943118;29;20058;-66
2021/12/09 09:45:00;;;;;;;7.63;5.05;;;;;;;10.93;43.03;100875.22;4946530;29;20337;-62
2021/12/09 09:47:45;;;;;;;7.90;5.50;;;;;;;10.80;41.46;100876.13;4946920;29;20102;-65
2021/12/09 09:50:33;;;;;;;7.80;5.72;;;;;;;11.18;39.71;100868.03;4943026;29;20123;-68
2021/12/09 09:53:19;;;;;;;8.35;5.22;;;;;;;11.46;38.07;100864.31;4946605;29;20038;-75
2021/12/09 09:56:13;;;;;;;9.60;5.20;;;;;;;11.59;36.96;100881.97;4950101;28;20038;-64
2021/12/09 09:59:06;;;;;;;8.32;5.05;;;;;;;11.48;35.59;100884.66;4947023;28;20058;-62
2021/12/09 10:01:52;;;;;;;7.10;4.70;;;;;;;11.61;35.61;100883.75;4946778;29;20046;-69
2021/12/09 10:07:32;;;;;;;8.55;5.07;;;;;;;11.83;32.64;100885.34;4929282;29;20179;-61
2021/12/09 10:10:16;;;;;;;8.43;4.88;;;;;;;11.45;31.53;100881.16;4937058;29;20058;-59
2021/12/09 10:13:04;;;;;;;6.07;4.43;;;;;;;11.98;33.29;100866.63;4930413;29;20057;-63
2021/12/09 10:15:52;;;;;;;8.35;5.15;;;;;;;12.18;32.75;100871.81;4931720;29;20050;-68
2021/12/09 10:18:44;;;;;;;8.63;4.93;;;;;;;12.43;31.28;100878.63;4945210;29;20046;-57
2021/12/09 10:21:31;;;;;;;8.10;4.57;;;;;;;12.37;31.81;100860.06;4938767;28;20049;-57
2021/12/09 10:24:17;;;;;;;9.05;5.40;;;;;;;12.46;31.77;100866.19;4966598;28;20142;-66
2021/12/09 10:27:02;;;;;;;8.35;5.68;;;;;;;12.47;31.10;100867.06;4965818;28;20392;-58
2021/12/09 10:29:47;;;;;;;9.52;5.90;;;;;;;12.86;30.29;100867.50;4960512;28;20097;-58
2021/12/09 10:32:34;;;;;;;;;;;;;;;12.93;30.95;100877.19;4966664;28;20876;-62
2021/12/09 10:35:21;;;;;;;6.40;4.80;;;;;;;12.66;31.41;100872.16;4964377;28;19937;-59
2021/12/09 10:38:07;;;;;;;10.45;6.10;;;;;;;12.68;29.59;100874.81;4967208;28;20086;-61
2021/12/09 10:40:59;;;;;;;9.20;5.03;;;;;;;12.93;29.39;100878.97;4950419;28;20042;-63
2021/12/09 10:43:50;;;;;;;9.18;5.18;;;;;;;13.53;29.86;100884.41;4961510;28;20089;-63
2021/12/09 10:46:51;;;;;;;8.27;5.10;;;;;;;13.49;29.23;100885.34;4963490;28;20058;-65
2021/12/09 10:50:05;;;;;;;10.23;5.57;;;;;;;13.56;27.91;100887.03;4964344;28;20041;-60
2021/12/09 10:56:10;;;;;;;8.98;5.07;;;;;;;13.05;28.43;100882.41;4965034;28;20368;-58
2021/12/09 10:58:56;;;;;;;9.15;5.25;;;;;;;13.06;27.81;100889.47;4964547;28;20122;-56
2021/12/09 11:01:41;;;;;;;9.27;5.85;;;;;;;12.79;27.77;100886.25;4966369;28;20049;-61
2021/12/09 11:04:26;;;;;;;7.78;5.63;;;;;;;13.03;27.30;100881.56;4964254;28;20439;-63
2021/12/09 11:07:31;;;;;;;8.55;5.53;;;;;;;12.97;27.34;100891.34;4947117;28;20551;-64
2021/12/09 11:10:23;;;;;;;8.90;5.47;;;;;;;12.89;28.44;100894.09;4950532;28;20067;-70
2021/12/09 11:13:08;;;;;;;7.60;5.30;;;;;;;12.84;27.49;100911.00;4965120;28;20077;-65
2021/12/09 11:15:54;;;;;;;8.80;5.22;;;;;;;12.87;27.21;100911.00;4949319;28;20069;-62
2021/12/09 11:18:44;;;;;;;9.65;5.53;;;;;;;12.73;26.85;100913.81;4963085;28;20042;-60
2021/12/09 11:21:34;;;;;;;9.65;5.93;;;;;;;12.20;26.94;100916.09;4976818;28;20115;-60
2021/12/09 11:24:22;;;;;;;8.82;5.85;;;;;;;11.83;29.28;100927.88;4955377;28;20056;-59
2021/12/09 11:27:13;;;;;;;9.93;6.07;;;;;;;11.53;29.21;100919.19;4969840;28;20117;-63
2021/12/09 11:30:12;;;;;;;11.27;6.03;;;;;;;10.89;30.93;100921.25;4984372;28;20179;-59
2021/12/09 11:33:00;;;;;;;11.40;6.43;;;;;;;10.78;31.58;100922.13;4951163;28;20459;-59
2021/12/09 11:35:44;;;;;;;11.30;6.97;;;;;;;9.68;38.43;100926.56;4985163;28;20037;-59
2021/12/09 11:38:45;;;;;;;9.70;6.20;;;;;;;8.57;38.65;100921.66;4985786;28;20132;-63
2021/12/09 11:41:36;;;;;;;9.57;5.65;;;;;;;7.56;39.33;100930.47;4967135;28;20085;-65
2021/12/09 11:44:20;;;;;;;9.68;5.88;;;;;;;6.53;43.34;100941.44;4976750;28;20057;-64
2021/12/09 11:47:06;;;;;;;9.68;5.53;;;;;;;5.53;48.47;100937.09;4968935;28;20073;-67
2021/12/09 11:49:52;;;;;;;12.20;5.80;;;;;;;4.59;53.45;100944.75;4970168;28;20100;-68
2021/12/09 11:52:38;;;;;;;9.63;5.47;;;;;;;4.33;56.78;100941.53;4982148;28;20076;-62
2021/12/09 11:55:38;;;;;;;10.13;5.40;;;;;;;4.29;58.65;100941.41;4967389;28;20048;-64
2021/12/09 11:58:32;;;;;;;9.50;5.25;;;;;;;3.80;60.25;100948.94;4969568;28;20046;-64
2021/12/09 12:13:52;;;;;;;11.50;5.25;;;;;;;1.35;74.05;100953.53;4968459;28;20067;-70
2021/12/09 12:17:02;;;;;;;10.32;5.32;;;;;;;1.30;76.63;100955.09;4982904;28;20048;-70
2021/12/09 12:28:57;;;;;;;10.18;4.95;;;;;;;0.78;83.04;100977.53;4969879;28;20008;-63
2021/12/09 12:38:03;;;;;;;10.65;5.30;;;;;;;0.12;87.29;100991.44;4971848;28;20109;-63
2021/12/09 12:41:14;;;;;;;10.82;5.25;;;;;;;-0.01;89.45;100991.72;4975872;28;20040;-65
2021/12/09 12:44:06;;;;;;;10.57;5.00;;;;;;;-0.34;92.33;101005.97;4963122;28;20134;-65
2021/12/09 12:49:37;;;;;;;9.00;4.80;;;;;;;-0.71;94.61;101000.88;4985670;28;20073;-62
2021/12/09 12:52:30;;;;;;;10.07;4.75;;;;;;;-0.96;96.78;101008.41;4967498;28;20042;-54
2021/12/09 12:55:24;;;;;;;14.88;5.55;;;;;;;-1.03;97.89;101014.16;4984111;28;20054;-65
2021/12/09 12:58:13;;;;;;;11.07;4.85;;;;;;;-0.95;99.03;101014.53;4959069;28;20085;-59
2021/12/09 13:01:16;;;;;;;12.13;5.05;;;;;;;-0.99;100.00;101026.50;4973230;28;20070;-59
2021/12/09 13:04:23;;;;;;;11.73;4.63;;;;;;;-1.20;100.00;101030.72;4968704;28;20450;-54
2021/12/09 13:07:21;;;;;;;11.95;5.10;;;;;;;-1.45;100.00;101039.91;4955710;28;20049;-58
2021/12/09 13:16:58;;;;;;;11.73;5.50;;;;;;;-1.93;100.00;101058.31;4980987;28;20100;-59
2021/12/09 13:20:26;;;;;;;13.48;5.97;;;;;;;-2.39;100.00;101049.91;4969868;28;20565;-65
2021/12/09 13:23:30;;;;;;;10.85;5.80;;;;;;;-2.24;100.00;101065.38;4944862;29;20058;-58
2021/12/09 13:26:23;;;;;;;13.77;5.78;;;;;;;-2.44;100.00;101068.66;4946194;28;20050;-65
2021/12/09 13:29:22;;;;;;;13.65;5.65;;;;;;;-2.56;100.00;101066.34;4944302;29;20503;-60
2021/12/09 13:32:55;;;;;;;12.50;5.13;;;;;;;-2.93;100.00;101070.38;4958313;28;20042;-66
2021/12/09 13:47:58;;;;;;;16.77;5.85;;;;;;;-3.12;100.00;101092.66;4945530;29;20143;-55
2021/12/09 13:50:56;;;;;;;13.15;5.70;;;;;;;-3.15;100.00;101101.16;4946642;29;20059;-57
2021/12/09 13:56:46;;;;;;;12.05;5.45;;;;;;;-3.56;100.00;101108.31;4947268;29;20070;-63
2021/12/09 13:59:35;;;;;;;15.15;6.28;;;;;;;-3.47;100.00;101101.06;4953416;28;20185;-56
2021/12/09 14:02:22;;;;;;;10.10;5.00;;;;;;;-3.66;100.00;101106.03;4958271;28;20038;-56